Pioneer, Ohio
Current Conditions -  °F | °C
As of 8:15 PM on Thursday 27 Nov 2014 (Local Time) from KJYM Reporting Station
Overcast Overcast  
Wind Chill: 14°   Ceiling: 6500
Heat Index: 25°   Visibility: 10mi
Dew Point: 17°   Wind: 13mph
Humidity: 72%   Direction: 320°NW
Pressure: 30.27"   Gusts: NA
Location:  41.68°N, 84.55°W
Report Text: KJYM 280115Z AUTO 32011KT 10SM OVC065 M04/M08 A3027 RMK AO2 T10381081
Loading
Personal Weather Stations






























Interactive Weather Map New forecast layout! Learn more

10-Day Weather Forecast

Advertisements
Track Severe Weather on mobile